sensor_id;sensor_type;location;lat;lon;timestamp;P1;durP1;ratioP1;P2;durP2;ratioP2
74074;SDS011;62428;51.412;5.432;2023-02-08T00:02:14;13.20;;;6.30;;
74074;SDS011;62428;51.412;5.432;2023-02-08T00:04:39;15.87;;;5.80;;
74074;SDS011;62428;51.412;5.432;2023-02-08T00:07:05;15.18;;;6.10;;
74074;SDS011;62428;51.412;5.432;2023-02-08T00:09:30;13.40;;;5.95;;
74074;SDS011;62428;51.412;5.432;2023-02-08T00:11:56;18.30;;;5.90;;
74074;SDS011;62428;51.412;5.432;2023-02-08T00:14:21;13.57;;;5.67;;
74074;SDS011;62428;51.412;5.432;2023-02-08T00:16:46;16.13;;;6.33;;
74074;SDS011;62428;51.412;5.432;2023-02-08T00:19:11;13.87;;;5.90;;
74074;SDS011;62428;51.412;5.432;2023-02-08T00:21:37;19.00;;;6.63;;
74074;SDS011;62428;51.412;5.432;2023-02-08T00:24:02;14.00;;;6.23;;
74074;SDS011;62428;51.412;5.432;2023-02-08T00:26:28;13.27;;;6.10;;
74074;SDS011;62428;51.412;5.432;2023-02-08T00:28:53;16.38;;;6.78;;
74074;SDS011;62428;51.412;5.432;2023-02-08T00:31:18;16.50;;;5.97;;
74074;SDS011;62428;51.412;5.432;2023-02-08T00:33:43;16.10;;;5.87;;
74074;SDS011;62428;51.412;5.432;2023-02-08T00:36:09;18.90;;;6.67;;
74074;SDS011;62428;51.412;5.432;2023-02-08T00:38:35;17.67;;;6.15;;
74074;SDS011;62428;51.412;5.432;2023-02-08T00:41:00;22.10;;;6.90;;
74074;SDS011;62428;51.412;5.432;2023-02-08T00:43:25;14.77;;;6.20;;
74074;SDS011;62428;51.412;5.432;2023-02-08T01:42:25;16.40;;;6.43;;
74074;SDS011;62428;51.412;5.432;2023-02-08T01:47:41;15.37;;;5.23;;
74074;SDS011;62428;51.412;5.432;2023-02-08T01:50:09;12.90;;;5.38;;
74074;SDS011;62428;51.412;5.432;2023-02-08T01:52:35;15.07;;;6.18;;
74074;SDS011;62428;51.412;5.432;2023-02-08T01:55:04;17.35;;;6.00;;
74074;SDS011;62428;51.412;5.432;2023-02-08T01:57:34;15.13;;;5.80;;
74074;SDS011;62428;51.412;5.432;2023-02-08T02:00:00;15.05;;;5.85;;
74074;SDS011;62428;51.412;5.432;2023-02-08T02:02:37;13.30;;;5.40;;
74074;SDS011;62428;51.412;5.432;2023-02-08T02:05:04;14.35;;;5.82;;
74074;SDS011;62428;51.412;5.432;2023-02-08T02:07:30;14.48;;;5.95;;
74074;SDS011;62428;51.412;5.432;2023-02-08T02:10:11;14.13;;;6.20;;
74074;SDS011;62428;51.412;5.432;2023-02-08T02:12:40;14.13;;;5.20;;
74074;SDS011;62428;51.412;5.432;2023-02-08T02:15:06;14.88;;;5.28;;
74074;SDS011;62428;51.412;5.432;2023-02-08T02:17:33;13.52;;;5.60;;
74074;SDS011;62428;51.412;5.432;2023-02-08T02:23:22;13.50;;;5.50;;
74074;SDS011;62428;51.412;5.432;2023-02-08T02:26:23;15.38;;;5.35;;
74074;SDS011;62428;51.412;5.432;2023-02-08T02:29:30;12.77;;;5.40;;
74074;SDS011;62428;51.412;5.432;2023-02-08T02:37:39;16.05;;;5.68;;
74074;SDS011;62428;51.412;5.432;2023-02-08T02:46:14;13.98;;;5.35;;
74074;SDS011;62428;51.412;5.432;2023-02-08T02:51:09;12.98;;;5.85;;
74074;SDS011;62428;51.412;5.432;2023-02-08T02:56:17;11.73;;;4.93;;
74074;SDS011;62428;51.412;5.432;2023-02-08T02:58:46;11.88;;;5.05;;
74074;SDS011;62428;51.412;5.432;2023-02-08T03:01:12;12.83;;;5.63;;
74074;SDS011;62428;51.412;5.432;2023-02-08T03:03:37;15.82;;;6.00;;
74074;SDS011;62428;51.412;5.432;2023-02-08T03:06:06;15.83;;;5.80;;
74074;SDS011;62428;51.412;5.432;2023-02-08T03:11:56;13.70;;;5.70;;
74074;SDS011;62428;51.412;5.432;2023-02-08T03:14:33;14.93;;;5.87;;
74074;SDS011;62428;51.412;5.432;2023-02-08T03:17:26;10.75;;;5.07;;
74074;SDS011;62428;51.412;5.432;2023-02-08T03:20:03;12.82;;;5.63;;
74074;SDS011;62428;51.412;5.432;2023-02-08T03:25:20;11.77;;;5.30;;
74074;SDS011;62428;51.412;5.432;2023-02-08T03:33:38;11.50;;;5.30;;
74074;SDS011;62428;51.412;5.432;2023-02-08T03:38:41;12.00;;;4.77;;
74074;SDS011;62428;51.412;5.432;2023-02-08T03:41:10;11.00;;;4.35;;
74074;SDS011;62428;51.412;5.432;2023-02-08T03:43:41;13.70;;;5.20;;
74074;SDS011;62428;51.412;5.432;2023-02-08T03:48:45;12.05;;;5.20;;
74074;SDS011;62428;51.412;5.432;2023-02-08T03:51:15;12.18;;;5.50;;
74074;SDS011;62428;51.412;5.432;2023-02-08T03:53:44;10.73;;;5.07;;
74074;SDS011;62428;51.412;5.432;2023-02-08T03:56:14;11.00;;;5.13;;
74074;SDS011;62428;51.412;5.432;2023-02-08T03:59:02;14.60;;;5.60;;
74074;SDS011;62428;51.412;5.432;2023-02-08T04:01:43;13.88;;;4.82;;
74074;SDS011;62428;51.412;5.432;2023-02-08T04:04:13;16.70;;;5.80;;
74074;SDS011;62428;51.412;5.432;2023-02-08T04:06:42;14.52;;;5.35;;
74074;SDS011;62428;51.412;5.432;2023-02-08T04:09:08;11.90;;;5.10;;
74074;SDS011;62428;51.412;5.432;2023-02-08T04:11:33;14.83;;;5.10;;
74074;SDS011;62428;51.412;5.432;2023-02-08T04:13:59;13.20;;;4.67;;
74074;SDS011;62428;51.412;5.432;2023-02-08T04:16:24;11.63;;;5.37;;
74074;SDS011;62428;51.412;5.432;2023-02-08T04:18:49;12.20;;;5.47;;
74074;SDS011;62428;51.412;5.432;2023-02-08T04:21:15;13.20;;;5.13;;
74074;SDS011;62428;51.412;5.432;2023-02-08T04:23:41;12.77;;;5.13;;
74074;SDS011;62428;51.412;5.432;2023-02-08T04:26:06;10.93;;;5.00;;
74074;SDS011;62428;51.412;5.432;2023-02-08T04:28:32;11.27;;;4.57;;
74074;SDS011;62428;51.412;5.432;2023-02-08T04:30:58;16.00;;;5.75;;
74074;SDS011;62428;51.412;5.432;2023-02-08T04:33:24;11.90;;;5.33;;
74074;SDS011;62428;51.412;5.432;2023-02-08T04:35:51;15.40;;;6.00;;
74074;SDS011;62428;51.412;5.432;2023-02-08T04:38:16;13.40;;;4.97;;
74074;SDS011;62428;51.412;5.432;2023-02-08T04:40:42;13.83;;;5.50;;
74074;SDS011;62428;51.412;5.432;2023-02-08T04:43:07;16.95;;;5.10;;
74074;SDS011;62428;51.412;5.432;2023-02-08T04:45:32;11.50;;;5.43;;
74074;SDS011;62428;51.412;5.432;2023-02-08T04:47:59;15.57;;;5.50;;
74074;SDS011;62428;51.412;5.432;2023-02-08T04:50:25;15.88;;;5.85;;
74074;SDS011;62428;51.412;5.432;2023-02-08T04:52:52;13.77;;;5.47;;
74074;SDS011;62428;51.412;5.432;2023-02-08T04:55:18;11.60;;;5.75;;
74074;SDS011;62428;51.412;5.432;2023-02-08T04:57:43;13.80;;;5.70;;
74074;SDS011;62428;51.412;5.432;2023-02-08T05:00:09;14.93;;;6.03;;
74074;SDS011;62428;51.412;5.432;2023-02-08T05:02:35;12.98;;;4.75;;
74074;SDS011;62428;51.412;5.432;2023-02-08T05:05:00;12.75;;;5.57;;
74074;SDS011;62428;51.412;5.432;2023-02-08T05:07:26;14.90;;;6.17;;
74074;SDS011;62428;51.412;5.432;2023-02-08T05:09:51;16.23;;;6.37;;
74074;SDS011;62428;51.412;5.432;2023-02-08T05:12:17;9.93;;;4.63;;
74074;SDS011;62428;51.412;5.432;2023-02-08T05:14:42;11.45;;;5.07;;
74074;SDS011;62428;51.412;5.432;2023-02-08T05:17:07;14.60;;;5.63;;
74074;SDS011;62428;51.412;5.432;2023-02-08T05:19:33;14.73;;;5.80;;
74074;SDS011;62428;51.412;5.432;2023-02-08T05:21:59;17.33;;;6.17;;
74074;SDS011;62428;51.412;5.432;2023-02-08T05:24:24;13.60;;;6.00;;
74074;SDS011;62428;51.412;5.432;2023-02-08T05:26:50;15.53;;;5.23;;
74074;SDS011;62428;51.412;5.432;2023-02-08T05:29:15;13.27;;;5.70;;
74074;SDS011;62428;51.412;5.432;2023-02-08T05:31:41;13.98;;;5.78;;
74074;SDS011;62428;51.412;5.432;2023-02-08T05:34:06;15.20;;;5.32;;
74074;SDS011;62428;51.412;5.432;2023-02-08T05:36:32;10.87;;;5.30;;
74074;SDS011;62428;51.412;5.432;2023-02-08T05:38:57;16.57;;;6.17;;
74074;SDS011;62428;51.412;5.432;2023-02-08T05:41:22;11.33;;;4.77;;
74074;SDS011;62428;51.412;5.432;2023-02-08T05:43:48;10.38;;;4.68;;
74074;SDS011;62428;51.412;5.432;2023-02-08T05:46:13;11.07;;;4.80;;
74074;SDS011;62428;51.412;5.432;2023-02-08T05:48:39;13.20;;;5.50;;
74074;SDS011;62428;51.412;5.432;2023-02-08T05:51:04;14.85;;;5.30;;
74074;SDS011;62428;51.412;5.432;2023-02-08T05:53:30;11.00;;;5.35;;
74074;SDS011;62428;51.412;5.432;2023-02-08T05:55:56;11.70;;;5.17;;
74074;SDS011;62428;51.412;5.432;2023-02-08T05:58:22;12.00;;;5.93;;
74074;SDS011;62428;51.412;5.432;2023-02-08T06:00:48;13.90;;;4.78;;
74074;SDS011;62428;51.412;5.432;2023-02-08T06:03:14;16.33;;;5.73;;
74074;SDS011;62428;51.412;5.432;2023-02-08T06:05:39;15.20;;;5.20;;
74074;SDS011;62428;51.412;5.432;2023-02-08T06:08:05;17.58;;;5.25;;
74074;SDS011;62428;51.412;5.432;2023-02-08T06:10:32;12.75;;;5.55;;
74074;SDS011;62428;51.412;5.432;2023-02-08T06:12:58;13.10;;;5.40;;
74074;SDS011;62428;51.412;5.432;2023-02-08T06:15:23;13.57;;;5.55;;
74074;SDS011;62428;51.412;5.432;2023-02-08T06:17:49;14.90;;;5.43;;
74074;SDS011;62428;51.412;5.432;2023-02-08T06:20:15;13.57;;;5.18;;
74074;SDS011;62428;51.412;5.432;2023-02-08T06:22:40;13.13;;;4.97;;
74074;SDS011;62428;51.412;5.432;2023-02-08T06:25:06;11.87;;;5.43;;
74074;SDS011;62428;51.412;5.432;2023-02-08T06:27:31;13.07;;;4.95;;
74074;SDS011;62428;51.412;5.432;2023-02-08T06:29:57;15.27;;;6.20;;
74074;SDS011;62428;51.412;5.432;2023-02-08T06:32:22;11.63;;;4.83;;
74074;SDS011;62428;51.412;5.432;2023-02-08T06:34:48;11.20;;;5.27;;
74074;SDS011;62428;51.412;5.432;2023-02-08T06:37:15;15.57;;;5.72;;
74074;SDS011;62428;51.412;5.432;2023-02-08T06:39:41;19.75;;;5.68;;
74074;SDS011;62428;51.412;5.432;2023-02-08T06:42:07;11.20;;;5.33;;
74074;SDS011;62428;51.412;5.432;2023-02-08T06:44:32;17.60;;;6.07;;
74074;SDS011;62428;51.412;5.432;2023-02-08T06:46:57;13.23;;;5.13;;
74074;SDS011;62428;51.412;5.432;2023-02-08T06:49:23;12.93;;;5.18;;
74074;SDS011;62428;51.412;5.432;2023-02-08T06:51:48;13.47;;;5.23;;
74074;SDS011;62428;51.412;5.432;2023-02-08T06:54:14;15.53;;;6.10;;
74074;SDS011;62428;51.412;5.432;2023-02-08T06:56:39;15.90;;;6.17;;
74074;SDS011;62428;51.412;5.432;2023-02-08T06:59:05;13.73;;;5.22;;
74074;SDS011;62428;51.412;5.432;2023-02-08T07:01:30;15.20;;;5.50;;
74074;SDS011;62428;51.412;5.432;2023-02-08T07:03:56;12.20;;;5.43;;
74074;SDS011;62428;51.412;5.432;2023-02-08T07:06:21;12.87;;;5.17;;
74074;SDS011;62428;51.412;5.432;2023-02-08T07:08:47;14.00;;;5.73;;
74074;SDS011;62428;51.412;5.432;2023-02-08T07:11:13;20.73;;;6.50;;
74074;SDS011;62428;51.412;5.432;2023-02-08T07:13:40;13.02;;;5.13;;
74074;SDS011;62428;51.412;5.432;2023-02-08T07:16:06;12.67;;;5.37;;
74074;SDS011;62428;51.412;5.432;2023-02-08T07:18:34;14.77;;;5.38;;
74074;SDS011;62428;51.412;5.432;2023-02-08T07:21:00;14.38;;;5.57;;
74074;SDS011;62428;51.412;5.432;2023-02-08T07:23:26;14.07;;;5.95;;
74074;SDS011;62428;51.412;5.432;2023-02-08T07:25:55;13.37;;;5.53;;
74074;SDS011;62428;51.412;5.432;2023-02-08T07:28:28;13.00;;;5.15;;
74074;SDS011;62428;51.412;5.432;2023-02-08T07:30:54;13.77;;;5.83;;
74074;SDS011;62428;51.412;5.432;2023-02-08T07:33:20;17.25;;;6.15;;
74074;SDS011;62428;51.412;5.432;2023-02-08T07:35:45;16.45;;;5.22;;
74074;SDS011;62428;51.412;5.432;2023-02-08T07:38:11;14.20;;;5.30;;
74074;SDS011;62428;51.412;5.432;2023-02-08T07:40:36;15.50;;;6.17;;
74074;SDS011;62428;51.412;5.432;2023-02-08T07:43:02;16.47;;;6.07;;
74074;SDS011;62428;51.412;5.432;2023-02-08T07:45:27;16.30;;;6.23;;
74074;SDS011;62428;51.412;5.432;2023-02-08T07:47:52;13.37;;;5.80;;
74074;SDS011;62428;51.412;5.432;2023-02-08T07:50:18;11.00;;;5.43;;
74074;SDS011;62428;51.412;5.432;2023-02-08T07:52:43;17.08;;;6.45;;
74074;SDS011;62428;51.412;5.432;2023-02-08T07:55:10;16.47;;;5.80;;
74074;SDS011;62428;51.412;5.432;2023-02-08T07:57:40;16.60;;;6.38;;
74074;SDS011;62428;51.412;5.432;2023-02-08T08:00:09;19.13;;;6.28;;
74074;SDS011;62428;51.412;5.432;2023-02-08T08:02:35;19.63;;;6.13;;
74074;SDS011;62428;51.412;5.432;2023-02-08T08:05:01;15.93;;;6.30;;
74074;SDS011;62428;51.412;5.432;2023-02-08T08:07:27;16.65;;;6.45;;
74074;SDS011;62428;51.412;5.432;2023-02-08T08:09:52;15.63;;;5.80;;
74074;SDS011;62428;51.412;5.432;2023-02-08T08:12:17;15.80;;;6.33;;
74074;SDS011;62428;51.412;5.432;2023-02-08T08:14:43;14.53;;;6.33;;
74074;SDS011;62428;51.412;5.432;2023-02-08T08:17:08;13.67;;;5.90;;
74074;SDS011;62428;51.412;5.432;2023-02-08T08:19:33;17.07;;;6.93;;
74074;SDS011;62428;51.412;5.432;2023-02-08T08:21:59;16.90;;;6.30;;
74074;SDS011;62428;51.412;5.432;2023-02-08T08:24:24;17.27;;;6.30;;
74074;SDS011;62428;51.412;5.432;2023-02-08T08:26:49;17.00;;;6.33;;
74074;SDS011;62428;51.412;5.432;2023-02-08T08:29:15;20.27;;;7.57;;
74074;SDS011;62428;51.412;5.432;2023-02-08T08:31:41;16.25;;;6.63;;
74074;SDS011;62428;51.412;5.432;2023-02-08T08:34:07;18.33;;;6.87;;
74074;SDS011;62428;51.412;5.432;2023-02-08T08:36:32;13.83;;;6.23;;
74074;SDS011;62428;51.412;5.432;2023-02-08T08:38:58;13.55;;;5.53;;
74074;SDS011;62428;51.412;5.432;2023-02-08T08:41:23;19.87;;;6.57;;
74074;SDS011;62428;51.412;5.432;2023-02-08T08:43:51;14.23;;;6.47;;
74074;SDS011;62428;51.412;5.432;2023-02-08T08:46:16;16.77;;;6.35;;
74074;SDS011;62428;51.412;5.432;2023-02-08T08:48:42;17.13;;;6.20;;
74074;SDS011;62428;51.412;5.432;2023-02-08T08:51:07;14.03;;;6.30;;
74074;SDS011;62428;51.412;5.432;2023-02-08T08:53:33;16.75;;;6.68;;
74074;SDS011;62428;51.412;5.432;2023-02-08T08:55:59;17.77;;;6.50;;
74074;SDS011;62428;51.412;5.432;2023-02-08T08:58:24;17.52;;;6.28;;
74074;SDS011;62428;51.412;5.432;2023-02-08T09:00:50;14.68;;;6.05;;
74074;SDS011;62428;51.412;5.432;2023-02-08T09:03:16;14.63;;;5.78;;
74074;SDS011;62428;51.412;5.432;2023-02-08T09:05:41;17.50;;;5.83;;
74074;SDS011;62428;51.412;5.432;2023-02-08T09:08:06;17.73;;;6.47;;
74074;SDS011;62428;51.412;5.432;2023-02-08T09:10:32;15.77;;;6.23;;
74074;SDS011;62428;51.412;5.432;2023-02-08T09:12:57;15.90;;;6.87;;
74074;SDS011;62428;51.412;5.432;2023-02-08T09:15:23;13.40;;;5.53;;
74074;SDS011;62428;51.412;5.432;2023-02-08T09:17:48;13.32;;;5.65;;
74074;SDS011;62428;51.412;5.432;2023-02-08T09:20:13;15.43;;;5.80;;
74074;SDS011;62428;51.412;5.432;2023-02-08T09:22:39;19.50;;;5.80;;
74074;SDS011;62428;51.412;5.432;2023-02-08T09:25:04;14.53;;;5.67;;
74074;SDS011;62428;51.412;5.432;2023-02-08T09:27:31;14.50;;;5.93;;
74074;SDS011;62428;51.412;5.432;2023-02-08T09:29:56;11.80;;;5.20;;
74074;SDS011;62428;51.412;5.432;2023-02-08T09:32:22;15.70;;;6.20;;
74074;SDS011;62428;51.412;5.432;2023-02-08T09:34:47;11.37;;;4.90;;
74074;SDS011;62428;51.412;5.432;2023-02-08T09:37:12;16.73;;;7.18;;
74074;SDS011;62428;51.412;5.432;2023-02-08T09:39:39;10.40;;;4.93;;
74074;SDS011;62428;51.412;5.432;2023-02-08T09:47:36;11.00;;;4.47;;
74074;SDS011;62428;51.412;5.432;2023-02-08T09:50:17;11.70;;;5.05;;
74074;SDS011;62428;51.412;5.432;2023-02-08T09:55:50;11.87;;;4.87;;
74074;SDS011;62428;51.412;5.432;2023-02-08T10:00:50;10.57;;;4.85;;
74074;SDS011;62428;51.412;5.432;2023-02-08T10:05:57;11.93;;;6.00;;
74074;SDS011;62428;51.412;5.432;2023-02-08T10:08:22;12.77;;;5.23;;
74074;SDS011;62428;51.412;5.432;2023-02-08T10:10:55;14.97;;;4.47;;
74074;SDS011;62428;51.412;5.432;2023-02-08T10:13:38;11.65;;;5.15;;
74074;SDS011;62428;51.412;5.432;2023-02-08T10:22:17;11.10;;;4.67;;
74074;SDS011;62428;51.412;5.432;2023-02-08T10:24:57;14.70;;;5.18;;
74074;SDS011;62428;51.412;5.432;2023-02-08T10:33:23;13.13;;;4.80;;
74074;SDS011;62428;51.412;5.432;2023-02-08T10:35:55;9.97;;;4.30;;
74074;SDS011;62428;51.412;5.432;2023-02-08T10:40:53;10.82;;;4.47;;
74074;SDS011;62428;51.412;5.432;2023-02-08T10:43:36;11.07;;;4.65;;
74074;SDS011;62428;51.412;5.432;2023-02-08T10:49:09;9.57;;;4.10;;
74074;SDS011;62428;51.412;5.432;2023-02-08T10:51:48;10.27;;;4.40;;
74074;SDS011;62428;51.412;5.432;2023-02-08T10:54:14;13.20;;;5.17;;
74074;SDS011;62428;51.412;5.432;2023-02-08T10:56:50;10.70;;;4.47;;
74074;SDS011;62428;51.412;5.432;2023-02-08T10:59:23;9.35;;;4.25;;
74074;SDS011;62428;51.412;5.432;2023-02-08T11:01:52;9.75;;;4.20;;
74074;SDS011;62428;51.412;5.432;2023-02-08T11:04:18;12.07;;;4.43;;
74074;SDS011;62428;51.412;5.432;2023-02-08T11:06:44;8.23;;;4.20;;
74074;SDS011;62428;51.412;5.432;2023-02-08T11:11:47;10.65;;;4.13;;
74074;SDS011;62428;51.412;5.432;2023-02-08T11:14:16;10.97;;;5.03;;
74074;SDS011;62428;51.412;5.432;2023-02-08T11:16:51;10.98;;;4.82;;
74074;SDS011;62428;51.412;5.432;2023-02-08T11:20:00;10.48;;;5.03;;
74074;SDS011;62428;51.412;5.432;2023-02-08T11:22:19;8.88;;;5.05;;
74074;SDS011;62428;51.412;5.432;2023-02-08T11:24:54;13.13;;;4.60;;
74074;SDS011;62428;51.412;5.432;2023-02-08T11:32:36;10.73;;;4.90;;
74074;SDS011;62428;51.412;5.432;2023-02-08T11:35:17;9.60;;;4.95;;
74074;SDS011;62428;51.412;5.432;2023-02-08T11:37:46;10.00;;;4.43;;
74074;SDS011;62428;51.412;5.432;2023-02-08T11:40:24;9.00;;;4.23;;
74074;SDS011;62428;51.412;5.432;2023-02-08T11:46:05;17.40;;;4.45;;
74074;SDS011;62428;51.412;5.432;2023-02-08T11:48:43;13.00;;;4.40;;
74074;SDS011;62428;51.412;5.432;2023-02-08T11:53:56;8.35;;;4.10;;
74074;SDS011;62428;51.412;5.432;2023-02-08T11:56:26;7.20;;;3.97;;
74074;SDS011;62428;51.412;5.432;2023-02-08T12:01:24;8.82;;;4.43;;
74074;SDS011;62428;51.412;5.432;2023-02-08T12:03:51;7.97;;;3.80;;
74074;SDS011;62428;51.412;5.432;2023-02-08T12:06:21;11.10;;;4.17;;
74074;SDS011;62428;51.412;5.432;2023-02-08T12:08:59;10.00;;;4.20;;
74074;SDS011;62428;51.412;5.432;2023-02-08T12:11:38;9.05;;;4.22;;
74074;SDS011;62428;51.412;5.432;2023-02-08T12:22:26;8.38;;;3.70;;
74074;SDS011;62428;51.412;5.432;2023-02-08T12:24:59;7.13;;;3.60;;
74074;SDS011;62428;51.412;5.432;2023-02-08T12:27:38;6.40;;;3.22;;
74074;SDS011;62428;51.412;5.432;2023-02-08T12:30:12;8.18;;;3.97;;
74074;SDS011;62428;51.412;5.432;2023-02-08T12:41:42;9.23;;;3.80;;
74074;SDS011;62428;51.412;5.432;2023-02-08T12:44:45;8.65;;;4.20;;
74074;SDS011;62428;51.412;5.432;2023-02-08T12:53:12;5.80;;;2.88;;
74074;SDS011;62428;51.412;5.432;2023-02-08T12:55:43;6.43;;;3.10;;
74074;SDS011;62428;51.412;5.432;2023-02-08T12:58:27;9.15;;;3.20;;
74074;SDS011;62428;51.412;5.432;2023-02-08T13:00:57;6.90;;;3.00;;
74074;SDS011;62428;51.412;5.432;2023-02-08T13:06:19;6.93;;;3.10;;
74074;SDS011;62428;51.412;5.432;2023-02-08T13:11:42;5.88;;;2.92;;
74074;SDS011;62428;51.412;5.432;2023-02-08T13:14:27;5.90;;;2.47;;
74074;SDS011;62428;51.412;5.432;2023-02-08T13:17:04;4.78;;;2.10;;
74074;SDS011;62428;51.412;5.432;2023-02-08T13:22:06;5.70;;;2.60;;
74074;SDS011;62428;51.412;5.432;2023-02-08T13:24:33;7.00;;;2.90;;
74074;SDS011;62428;51.412;5.432;2023-02-08T13:27:00;9.02;;;3.00;;
74074;SDS011;62428;51.412;5.432;2023-02-08T13:29:27;6.13;;;3.05;;
74074;SDS011;62428;51.412;5.432;2023-02-08T13:31:58;6.40;;;2.30;;
74074;SDS011;62428;51.412;5.432;2023-02-08T13:37:01;4.00;;;2.22;;
74074;SDS011;62428;51.412;5.432;2023-02-08T13:39:34;5.45;;;2.10;;
74074;SDS011;62428;51.412;5.432;2023-02-08T13:42:03;5.45;;;2.42;;
74074;SDS011;62428;51.412;5.432;2023-02-08T13:44:34;5.67;;;2.70;;
74074;SDS011;62428;51.412;5.432;2023-02-08T13:47:02;6.20;;;2.92;;
74074;SDS011;62428;51.412;5.432;2023-02-08T13:49:42;6.63;;;3.40;;
74074;SDS011;62428;51.412;5.432;2023-02-08T13:52:44;7.13;;;2.25;;
74074;SDS011;62428;51.412;5.432;2023-02-08T14:00:43;4.80;;;2.15;;
74074;SDS011;62428;51.412;5.432;2023-02-08T14:03:24;5.97;;;2.10;;
74074;SDS011;62428;51.412;5.432;2023-02-08T14:05:54;3.83;;;1.50;;
74074;SDS011;62428;51.412;5.432;2023-02-08T14:13:49;3.25;;;1.45;;
74074;SDS011;62428;51.412;5.432;2023-02-08T14:18:51;8.98;;;2.03;;
74074;SDS011;62428;51.412;5.432;2023-02-08T14:21:26;8.48;;;2.17;;
74074;SDS011;62428;51.412;5.432;2023-02-08T14:24:00;3.60;;;1.98;;
74074;SDS011;62428;51.412;5.432;2023-02-08T14:26:28;5.93;;;1.95;;
74074;SDS011;62428;51.412;5.432;2023-02-08T14:28:55;4.20;;;2.10;;
74074;SDS011;62428;51.412;5.432;2023-02-08T14:31:34;4.57;;;2.13;;
74074;SDS011;62428;51.412;5.432;2023-02-08T14:34:01;4.55;;;2.30;;
74074;SDS011;62428;51.412;5.432;2023-02-08T14:36:31;5.30;;;2.20;;
74074;SDS011;62428;51.412;5.432;2023-02-08T14:41:56;4.50;;;2.10;;
74074;SDS011;62428;51.412;5.432;2023-02-08T14:47:03;5.90;;;2.35;;
74074;SDS011;62428;51.412;5.432;2023-02-08T14:49:34;5.38;;;2.50;;
74074;SDS011;62428;51.412;5.432;2023-02-08T14:52:04;4.25;;;2.25;;
74074;SDS011;62428;51.412;5.432;2023-02-08T14:54:55;4.05;;;2.17;;
74074;SDS011;62428;51.412;5.432;2023-02-08T14:57:31;3.53;;;1.83;;
74074;SDS011;62428;51.412;5.432;2023-02-08T15:00:00;5.30;;;2.75;;
74074;SDS011;62428;51.412;5.432;2023-02-08T15:02:29;5.05;;;2.40;;
74074;SDS011;62428;51.412;5.432;2023-02-08T15:04:59;4.80;;;1.98;;
74074;SDS011;62428;51.412;5.432;2023-02-08T15:09:54;5.17;;;2.00;;
74074;SDS011;62428;51.412;5.432;2023-02-08T15:12:27;7.22;;;2.38;;
74074;SDS011;62428;51.412;5.432;2023-02-08T15:14:56;5.50;;;2.53;;
74074;SDS011;62428;51.412;5.432;2023-02-08T15:19:59;4.32;;;2.10;;
74074;SDS011;62428;51.412;5.432;2023-02-08T15:22:32;4.80;;;2.53;;
74074;SDS011;62428;51.412;5.432;2023-02-08T15:24:59;6.25;;;1.92;;
74074;SDS011;62428;51.412;5.432;2023-02-08T15:27:30;4.10;;;2.15;;
74074;SDS011;62428;51.412;5.432;2023-02-08T15:29:57;4.00;;;2.42;;
74074;SDS011;62428;51.412;5.432;2023-02-08T15:32:24;6.07;;;2.53;;
74074;SDS011;62428;51.412;5.432;2023-02-08T15:34:55;4.57;;;1.95;;
74074;SDS011;62428;51.412;5.432;2023-02-08T15:37:23;5.03;;;2.20;;
74074;SDS011;62428;51.412;5.432;2023-02-08T15:39:55;6.30;;;2.45;;
74074;SDS011;62428;51.412;5.432;2023-02-08T15:42:23;4.17;;;1.80;;
74074;SDS011;62428;51.412;5.432;2023-02-08T15:44:53;3.38;;;1.85;;
74074;SDS011;62428;51.412;5.432;2023-02-08T15:47:26;5.15;;;1.40;;
74074;SDS011;62428;51.412;5.432;2023-02-08T15:49:54;4.43;;;1.40;;
74074;SDS011;62428;51.412;5.432;2023-02-08T15:52:26;4.15;;;1.45;;
74074;SDS011;62428;51.412;5.432;2023-02-08T15:54:54;3.63;;;1.50;;
74074;SDS011;62428;51.412;5.432;2023-02-08T15:57:21;2.63;;;1.30;;
74074;SDS011;62428;51.412;5.432;2023-02-08T16:00:12;2.93;;;1.30;;
74074;SDS011;62428;51.412;5.432;2023-02-08T16:02:40;5.57;;;1.40;;
74074;SDS011;62428;51.412;5.432;2023-02-08T16:05:17;6.13;;;1.80;;
74074;SDS011;62428;51.412;5.432;2023-02-08T16:07:45;4.28;;;1.60;;
74074;SDS011;62428;51.412;5.432;2023-02-08T16:10:45;3.63;;;1.43;;
74074;SDS011;62428;51.412;5.432;2023-02-08T16:13:17;3.22;;;1.00;;
74074;SDS011;62428;51.412;5.432;2023-02-08T16:15:48;10.40;;;1.88;;
74074;SDS011;62428;51.412;5.432;2023-02-08T16:20:56;4.88;;;1.65;;
74074;SDS011;62428;51.412;5.432;2023-02-08T16:23:27;3.10;;;1.23;;
74074;SDS011;62428;51.412;5.432;2023-02-08T16:26:04;3.78;;;1.40;;
74074;SDS011;62428;51.412;5.432;2023-02-08T16:28:50;4.68;;;1.52;;
74074;SDS011;62428;51.412;5.432;2023-02-08T16:31:22;5.38;;;1.73;;
74074;SDS011;62428;51.412;5.432;2023-02-08T16:33:55;5.45;;;1.23;;
74074;SDS011;62428;51.412;5.432;2023-02-08T16:36:24;3.83;;;1.43;;
74074;SDS011;62428;51.412;5.432;2023-02-08T16:44:21;2.60;;;1.05;;
74074;SDS011;62428;51.412;5.432;2023-02-08T16:46:48;5.78;;;1.42;;
74074;SDS011;62428;51.412;5.432;2023-02-08T16:49:13;4.50;;;1.87;;
74074;SDS011;62428;51.412;5.432;2023-02-08T16:51:39;4.60;;;1.30;;
74074;SDS011;62428;51.412;5.432;2023-02-08T16:54:09;3.83;;;1.50;;
74074;SDS011;62428;51.412;5.432;2023-02-08T16:56:45;2.97;;;1.38;;
74074;SDS011;62428;51.412;5.432;2023-02-08T16:59:13;5.28;;;1.65;;
74074;SDS011;62428;51.412;5.432;2023-02-08T17:01:40;3.97;;;1.53;;
74074;SDS011;62428;51.412;5.432;2023-02-08T17:04:12;3.97;;;1.50;;
74074;SDS011;62428;51.412;5.432;2023-02-08T17:06:37;9.43;;;1.60;;
74074;SDS011;62428;51.412;5.432;2023-02-08T17:09:06;4.18;;;1.33;;
74074;SDS011;62428;51.412;5.432;2023-02-08T17:11:33;4.20;;;1.45;;
74074;SDS011;62428;51.412;5.432;2023-02-08T17:13:59;4.75;;;1.48;;
74074;SDS011;62428;51.412;5.432;2023-02-08T17:16:25;4.53;;;1.80;;
74074;SDS011;62428;51.412;5.432;2023-02-08T17:18:53;5.20;;;1.50;;
74074;SDS011;62428;51.412;5.432;2023-02-08T17:21:19;5.50;;;1.40;;
74074;SDS011;62428;51.412;5.432;2023-02-08T17:23:44;3.95;;;1.45;;
74074;SDS011;62428;51.412;5.432;2023-02-08T17:26:14;4.13;;;1.67;;
74074;SDS011;62428;51.412;5.432;2023-02-08T17:28:43;8.30;;;1.55;;
74074;SDS011;62428;51.412;5.432;2023-02-08T17:31:10;3.75;;;1.50;;
74074;SDS011;62428;51.412;5.432;2023-02-08T17:33:36;4.93;;;1.53;;
74074;SDS011;62428;51.412;5.432;2023-02-08T17:36:04;4.75;;;1.50;;
74074;SDS011;62428;51.412;5.432;2023-02-08T17:38:30;3.15;;;1.48;;
74074;SDS011;62428;51.412;5.432;2023-02-08T17:40:55;5.07;;;1.50;;
74074;SDS011;62428;51.412;5.432;2023-02-08T17:43:21;4.47;;;1.70;;
74074;SDS011;62428;51.412;5.432;2023-02-08T17:45:47;4.55;;;1.77;;
74074;SDS011;62428;51.412;5.432;2023-02-08T17:48:12;3.93;;;1.50;;
74074;SDS011;62428;51.412;5.432;2023-02-08T17:50:39;3.92;;;1.50;;
74074;SDS011;62428;51.412;5.432;2023-02-08T17:53:07;3.17;;;1.40;;
74074;SDS011;62428;51.412;5.432;2023-02-08T17:55:33;5.37;;;1.67;;
74074;SDS011;62428;51.412;5.432;2023-02-08T17:57:58;8.33;;;1.80;;
74074;SDS011;62428;51.412;5.432;2023-02-08T18:00:23;7.17;;;1.90;;
74074;SDS011;62428;51.412;5.432;2023-02-08T18:02:53;4.28;;;1.70;;
74074;SDS011;62428;51.412;5.432;2023-02-08T18:05:23;5.55;;;2.08;;
74074;SDS011;62428;51.412;5.432;2023-02-08T18:07:51;5.20;;;2.20;;
74074;SDS011;62428;51.412;5.432;2023-02-08T18:10:17;5.78;;;2.47;;
74074;SDS011;62428;51.412;5.432;2023-02-08T18:12:43;6.73;;;2.57;;
74074;SDS011;62428;51.412;5.432;2023-02-08T18:15:09;6.63;;;2.87;;
74074;SDS011;62428;51.412;5.432;2023-02-08T18:17:37;7.15;;;2.80;;
74074;SDS011;62428;51.412;5.432;2023-02-08T18:20:03;6.82;;;2.80;;